Time;durP1;ratioP1;P1;durP2;ratioP2;P2;SDS_P1;SDS_P2;PMS_P1;PMS_P2;Temp;Humidity;BMP_temperature;BMP_pressure;BME280_temperature;BME280_humidity;BME280_pressure;Samples;Min_cycle;Max_cycle;Signal;HPM_P1;HPM_P2
2022/04/09 00:01:23;;;;;;;0.50;0.50;;;4.30;99.90;;;;;;5054821;28;20941;-70
2022/04/09 00:04:10;;;;;;;1.00;0.90;;;4.30;99.90;;;;;;5053717;28;20421;-70
2022/04/09 00:06:58;;;;;;;0.80;0.70;;;4.30;99.90;;;;;;5053487;28;20463;-69
2022/04/09 00:09:45;;;;;;;0.60;0.60;;;4.30;99.90;;;;;;5053991;28;20513;-69
2022/04/09 00:12:32;;;;;;;0.67;0.67;;;4.30;99.90;;;;;;5053883;28;20429;-69
2022/04/09 00:15:19;;;;;;;0.50;0.50;;;4.30;99.90;;;;;;5052191;28;20435;-69
2022/04/09 00:18:06;;;;;;;0.60;0.60;;;4.30;99.90;;;;;;5055551;28;20473;-69
2022/04/09 00:20:54;;;;;;;21.60;1.97;;;4.30;99.90;;;;;;5053641;28;20425;-69
2022/04/09 00:23:42;;;;;;;1.13;0.83;;;4.20;99.90;;;;;;5054348;28;20429;-69
2022/04/09 00:26:29;;;;;;;0.70;0.60;;;4.20;99.90;;;;;;5053544;28;20957;-68
2022/04/09 00:29:16;;;;;;;0.67;0.67;;;4.20;99.90;;;;;;5060800;28;20432;-69
2022/04/09 00:32:04;;;;;;;0.50;0.50;;;4.20;99.90;;;;;;5069700;28;20424;-68
2022/04/09 00:34:50;;;;;;;0.53;0.53;;;4.20;99.90;;;;;;5057935;28;20425;-69
2022/04/09 00:37:44;;;;;;;0.60;0.60;;;4.20;99.90;;;;;;5054208;28;20996;-68
2022/04/09 00:40:32;;;;;;;1.60;1.60;;;4.20;99.90;;;;;;5065933;28;20834;-68
2022/04/09 00:43:19;;;;;;;0.60;0.60;;;4.20;99.90;;;;;;5064895;28;20451;-69
2022/04/09 00:46:07;;;;;;;0.50;0.50;;;4.40;99.90;;;;;;5063629;28;20428;-69
2022/04/09 00:48:54;;;;;;;0.50;0.50;;;4.20;99.90;;;;;;5072595;28;20424;-68
2022/04/09 00:51:42;;;;;;;0.50;0.50;;;4.10;99.90;;;;;;5071924;28;20426;-69
2022/04/09 00:54:31;;;;;;;5.80;1.37;;;4.20;99.90;;;;;;5072389;28;20421;-69
2022/04/09 00:57:21;;;;;;;0.60;0.60;;;4.20;99.90;;;;;;5072202;28;20464;-68
2022/04/09 01:00:10;;;;;;;0.60;0.60;;;4.20;99.90;;;;;;5072874;28;20425;-68
2022/04/09 01:02:58;;;;;;;0.50;0.50;;;4.20;99.90;;;;;;5066432;28;20433;-69
2022/04/09 01:05:46;;;;;;;0.50;0.50;;;4.20;99.90;;;;;;5072761;28;20430;-69
2022/04/09 01:08:33;;;;;;;0.70;0.70;;;4.20;99.90;;;;;;5070651;28;20420;-68
2022/04/09 01:11:20;;;;;;;1.13;1.03;;;4.10;99.90;;;;;;5072562;28;20427;-66
2022/04/09 01:14:10;;;;;;;0.67;0.57;;;4.10;99.90;;;;;;5074694;28;20423;-67
2022/04/09 01:16:57;;;;;;;0.90;0.70;;;4.10;99.90;;;;;;5074638;28;20429;-69
2022/04/09 01:19:44;;;;;;;0.50;0.50;;;4.20;99.90;;;;;;5057886;28;20494;-69
2022/04/09 01:22:33;;;;;;;0.50;0.50;;;4.00;99.90;;;;;;5052527;28;20425;-71
2022/04/09 01:25:20;;;;;;;0.50;0.50;;;4.00;99.90;;;;;;5054325;28;20519;-69
2022/04/09 01:28:07;;;;;;;0.50;0.50;;;4.00;99.90;;;;;;5052424;28;20821;-70
2022/04/09 01:30:55;;;;;;;0.50;0.50;;;4.00;99.90;;;;;;5052636;28;20488;-70
2022/04/09 01:33:41;;;;;;;0.47;0.47;;;4.00;99.90;;;;;;5055975;28;20463;-69
2022/04/09 01:36:28;;;;;;;1.13;0.97;;;4.00;99.90;;;;;;5055145;28;20530;-70
2022/04/09 01:39:18;;;;;;;0.60;0.60;;;4.00;99.90;;;;;;5057563;28;20879;-69
2022/04/09 01:42:10;;;;;;;0.60;0.60;;;4.00;99.90;;;;;;5068015;28;20451;-70
2022/04/09 01:44:57;;;;;;;1.17;1.13;;;3.90;99.90;;;;;;5073168;28;20433;-69
2022/04/09 01:47:44;;;;;;;1.10;1.10;;;3.90;99.90;;;;;;5074993;28;20448;-68
2022/04/09 01:50:32;;;;;;;1.23;0.80;;;3.90;99.90;;;;;;5075945;28;21061;-69
2022/04/09 01:53:19;;;;;;;0.60;0.60;;;4.00;99.90;;;;;;5075003;28;20423;-69
2022/04/09 01:56:07;;;;;;;0.50;0.50;;;4.70;99.90;;;;;;5072708;28;20420;-68
2022/04/09 01:58:54;;;;;;;0.50;0.50;;;3.90;99.90;;;;;;5055422;28;20843;-67
2022/04/09 02:01:41;;;;;;;0.50;0.50;;;3.90;99.90;;;;;;5055214;28;20927;-67
2022/04/09 02:04:28;;;;;;;1.00;1.00;;;3.90;99.90;;;;;;5054954;28;20429;-67
2022/04/09 02:07:17;;;;;;;1.20;1.10;;;3.90;99.90;;;;;;5056263;28;20465;-67
2022/04/09 02:10:04;;;;;;;0.73;0.73;;;3.80;99.90;;;;;;5055363;28;20473;-67
2022/04/09 02:12:52;;;;;;;0.73;0.73;;;3.80;99.90;;;;;;5050064;28;20429;-68
2022/04/09 02:15:39;;;;;;;1.30;1.20;;;3.80;99.90;;;;;;5056450;28;20486;-68
2022/04/09 02:18:26;;;;;;;1.37;0.87;;;3.80;99.90;;;;;;5054544;28;20464;-68
2022/04/09 02:21:13;;;;;;;0.47;0.47;;;3.70;99.90;;;;;;5054687;28;20825;-68
2022/04/09 02:24:00;;;;;;;0.50;0.50;;;3.70;99.90;;;;;;5056201;28;20425;-67
2022/04/09 02:26:47;;;;;;;2.50;0.90;;;3.70;99.90;;;;;;5055590;28;20445;-68
2022/04/09 02:29:35;;;;;;;1.70;1.07;;;3.70;99.90;;;;;;5055038;28;20440;-68
2022/04/09 02:32:22;;;;;;;0.50;0.50;;;3.60;99.90;;;;;;5054598;28;20435;-67
2022/04/09 02:35:10;;;;;;;1.53;1.43;;;3.60;99.90;;;;;;5054417;28;20945;-68
2022/04/09 02:37:57;;;;;;;0.60;0.60;;;3.60;99.90;;;;;;5054391;28;20461;-68
2022/04/09 02:40:44;;;;;;;8.67;1.33;;;3.50;99.90;;;;;;5055009;28;20435;-67
2022/04/09 02:43:31;;;;;;;6.13;1.87;;;3.50;99.90;;;;;;5054533;28;20432;-67
2022/04/09 02:46:21;;;;;;;1.90;0.77;;;3.40;99.90;;;;;;5055793;28;20425;-68
2022/04/09 02:49:07;;;;;;;3.43;1.37;;;3.40;99.90;;;;;;5055031;28;20511;-68
2022/04/09 02:51:54;;;;;;;1.63;0.70;;;3.40;99.90;;;;;;5055083;28;20433;-67
2022/04/09 02:54:41;;;;;;;0.60;0.60;;;3.40;99.90;;;;;;5055488;28;20934;-67
2022/04/09 02:57:28;;;;;;;2.40;2.20;;;3.30;99.90;;;;;;5055423;28;20827;-67
2022/04/09 03:00:16;;;;;;;0.47;0.47;;;3.30;99.90;;;;;;5054448;28;20428;-67
2022/04/09 03:03:04;;;;;;;1.00;0.90;;;3.30;99.90;;;;;;5054473;28;20432;-67
2022/04/09 03:05:51;;;;;;;0.60;0.60;;;3.30;99.90;;;;;;5054381;28;20945;-68
2022/04/09 03:08:38;;;;;;;0.70;0.70;;;3.20;99.90;;;;;;5054846;28;20413;-67
2022/04/09 03:11:25;;;;;;;1.00;0.90;;;3.20;99.90;;;;;;5054819;28;20844;-67
2022/04/09 03:14:12;;;;;;;0.77;0.70;;;3.20;99.90;;;;;;5053296;28;20797;-68
2022/04/09 03:16:59;;;;;;;0.60;0.60;;;3.10;99.90;;;;;;5054629;28;20856;-67
2022/04/09 03:19:47;;;;;;;0.93;0.93;;;3.10;99.90;;;;;;5053163;28;20797;-67
2022/04/09 03:22:34;;;;;;;0.50;0.50;;;3.00;99.90;;;;;;5052814;28;20444;-67
2022/04/09 03:25:21;;;;;;;0.90;0.80;;;3.00;99.90;;;;;;5055445;28;20432;-67
2022/04/09 03:28:08;;;;;;;0.50;0.50;;;3.00;99.90;;;;;;5054211;28;20463;-68
2022/04/09 03:30:55;;;;;;;1.33;0.50;;;2.90;99.90;;;;;;5053686;28;20429;-67
2022/04/09 03:33:42;;;;;;;6.53;2.03;;;2.90;99.90;;;;;;5052890;28;20791;-67
2022/04/09 03:36:31;;;;;;;1.47;1.37;;;2.90;99.90;;;;;;5058949;28;20475;-68
2022/04/09 03:39:17;;;;;;;0.70;0.70;;;2.90;99.90;;;;;;5068955;28;20469;-68
2022/04/09 03:42:05;;;;;;;3.43;0.70;;;2.90;99.90;;;;;;5055988;28;20495;-68
2022/04/09 03:44:52;;;;;;;3.13;1.37;;;2.80;99.90;;;;;;5049026;28;20460;-67
2022/04/09 03:47:39;;;;;;;0.60;0.50;;;2.80;99.90;;;;;;5054539;28;20438;-68
2022/04/09 03:50:26;;;;;;;1.10;1.00;;;2.70;99.90;;;;;;5054354;28;20424;-67
2022/04/09 03:53:19;;;;;;;0.57;0.57;;;2.70;99.90;;;;;;5052649;28;20908;-67
2022/04/09 03:56:06;;;;;;;0.60;0.60;;;2.60;99.90;;;;;;5054054;28;20433;-67
2022/04/09 03:58:53;;;;;;;0.50;0.50;;;2.70;99.90;;;;;;5053528;28;20885;-68
2022/04/09 04:01:42;;;;;;;3.60;1.20;;;2.60;99.90;;;;;;5054230;28;20945;-67
2022/04/09 04:04:29;;;;;;;0.40;0.40;;;2.60;99.90;;;;;;5053320;28;20559;-67
2022/04/09 04:07:20;;;;;;;1.00;0.93;;;2.60;99.90;;;;;;5053023;28;20466;-67
2022/04/09 04:10:10;;;;;;;0.50;0.50;;;2.60;99.90;;;;;;5054731;28;20421;-68
2022/04/09 04:12:57;;;;;;;0.50;0.50;;;2.60;99.90;;;;;;5053376;28;20417;-67
2022/04/09 04:15:44;;;;;;;0.50;0.50;;;2.60;99.90;;;;;;5053218;28;20449;-67
2022/04/09 04:18:31;;;;;;;1.00;0.90;;;2.60;99.90;;;;;;5054296;28;20456;-66
2022/04/09 04:21:19;;;;;;;0.50;0.50;;;2.50;99.90;;;;;;5052980;28;20421;-68
2022/04/09 04:24:06;;;;;;;0.40;0.40;;;2.50;99.90;;;;;;5053140;28;20439;-67
2022/04/09 04:26:54;;;;;;;6.20;2.97;;;2.50;99.90;;;;;;5053842;28;20459;-67
2022/04/09 04:29:41;;;;;;;0.73;0.73;;;2.50;99.90;;;;;;5053251;28;20432;-67
2022/04/09 04:32:28;;;;;;;4.30;0.97;;;2.50;99.90;;;;;;5052479;28;20806;-68
2022/04/09 04:35:15;;;;;;;0.50;0.50;;;2.50;99.90;;;;;;5054431;28;20443;-67
2022/04/09 04:38:02;;;;;;;0.80;0.60;;;2.50;99.90;;;;;;5051203;28;20451;-67
2022/04/09 04:40:49;;;;;;;0.40;0.40;;;2.60;99.90;;;;;;5053282;28;20432;-67
2022/04/09 04:43:38;;;;;;;1.87;0.97;;;2.60;99.90;;;;;;5052603;28;20800;-68
2022/04/09 04:46:24;;;;;;;0.60;0.60;;;2.60;99.90;;;;;;5053207;28;20441;-68
2022/04/09 04:49:12;;;;;;;1.67;1.57;;;2.70;99.90;;;;;;5053856;28;20429;-67
2022/04/09 04:51:59;;;;;;;0.80;0.70;;;2.70;99.90;;;;;;5060659;28;20433;-68
2022/04/09 04:54:46;;;;;;;0.47;0.47;;;2.70;99.90;;;;;;5065057;28;20450;-69
2022/04/09 04:57:40;;;;;;;0.50;0.50;;;2.80;99.90;;;;;;5052640;28;20829;-68
2022/04/09 05:00:29;;;;;;;1.83;1.47;;;2.80;99.90;;;;;;5053314;28;20455;-67
2022/04/09 05:03:16;;;;;;;0.57;0.57;;;2.90;99.90;;;;;;5053540;28;20451;-67
2022/04/09 05:06:02;;;;;;;0.90;0.77;;;2.90;99.90;;;;;;5053382;28;20438;-67
2022/04/09 05:08:49;;;;;;;0.60;0.60;;;2.80;99.90;;;;;;5062607;28;20409;-67
2022/04/09 05:11:36;;;;;;;1.47;1.00;;;2.90;99.90;;;;;;5066427;28;20498;-67
2022/04/09 05:14:23;;;;;;;1.60;0.80;;;2.80;99.90;;;;;;5067079;28;20442;-68
2022/04/09 05:17:12;;;;;;;0.70;0.70;;;2.90;99.90;;;;;;5064551;28;20444;-67
2022/04/09 05:19:59;;;;;;;2.10;2.00;;;2.80;99.90;;;;;;5065094;28;20468;-67
2022/04/09 05:22:47;;;;;;;7.83;1.33;;;2.80;99.90;;;;;;5065444;28;20811;-67
2022/04/09 05:25:34;;;;;;;3.17;2.07;;;2.80;99.90;;;;;;5065949;28;20508;-67
2022/04/09 05:28:21;;;;;;;0.50;0.50;;;2.80;99.90;;;;;;5062351;28;20445;-67
2022/04/09 05:31:10;;;;;;;0.50;0.50;;;2.80;99.90;;;;;;5057644;28;20451;-67
2022/04/09 05:33:58;;;;;;;0.70;0.70;;;2.80;99.90;;;;;;5058226;28;20478;-68
2022/04/09 05:36:45;;;;;;;0.90;0.90;;;2.90;99.90;;;;;;5058428;28;20441;-68
2022/04/09 05:39:31;;;;;;;7.93;2.20;;;2.90;99.90;;;;;;5057791;28;20521;-68
2022/04/09 05:42:18;;;;;;;1.37;0.80;;;2.90;99.90;;;;;;5057460;28;20432;-67
2022/04/09 05:45:06;;;;;;;4.03;1.60;;;3.00;99.90;;;;;;5057241;28;20436;-68
2022/04/09 05:47:53;;;;;;;1.27;0.97;;;3.10;99.90;;;;;;5055751;28;20452;-67
2022/04/09 05:50:41;;;;;;;1.17;0.90;;;3.30;99.90;;;;;;5056922;28;20956;-68
2022/04/09 05:53:28;;;;;;;3.23;1.30;;;3.50;99.90;;;;;;5055728;28;20420;-67
2022/04/09 05:56:15;;;;;;;0.50;0.50;;;3.80;99.90;;;;;;5055608;28;20429;-68
2022/04/09 05:59:02;;;;;;;0.50;0.50;;;3.80;99.90;;;;;;5057595;28;21047;-68
2022/04/09 06:01:49;;;;;;;7.90;1.77;;;3.80;99.90;;;;;;5057058;28;20825;-67
2022/04/09 06:04:36;;;;;;;4.10;1.37;;;3.90;99.90;;;;;;5057546;28;20429;-67
2022/04/09 06:07:26;;;;;;;3.13;1.60;;;4.00;99.90;;;;;;5057376;28;20462;-67
2022/04/09 06:10:14;;;;;;;5.60;2.70;;;4.00;99.90;;;;;;5056600;28;20425;-68
2022/04/09 06:13:01;;;;;;;0.97;0.87;;;4.10;99.90;;;;;;5056578;28;20520;-67
2022/04/09 06:15:47;;;;;;;3.90;0.90;;;4.10;99.90;;;;;;5057140;28;20436;-67
2022/04/09 06:18:35;;;;;;;1.43;1.00;;;4.10;99.90;;;;;;5056722;28;20436;-68
2022/04/09 06:21:22;;;;;;;0.70;0.60;;;4.00;99.90;;;;;;5055989;28;21056;-68
2022/04/09 06:24:10;;;;;;;1.40;1.20;;;4.00;99.90;;;;;;5056726;28;20425;-67
2022/04/09 06:26:57;;;;;;;0.50;0.50;;;3.90;99.90;;;;;;5057534;28;20802;-68
2022/04/09 06:29:44;;;;;;;0.60;0.60;;;4.00;99.90;;;;;;5056598;28;20956;-68
2022/04/09 06:32:31;;;;;;;0.40;0.40;;;4.10;99.90;;;;;;5056879;28;20436;-68
2022/04/09 06:35:18;;;;;;;1.13;0.93;;;4.10;99.90;;;;;;5056798;28;20425;-68
2022/04/09 06:38:05;;;;;;;1.57;1.10;;;4.20;99.90;;;;;;5056531;28;20448;-68
2022/04/09 06:40:54;;;;;;;0.50;0.50;;;4.30;99.90;;;;;;5056445;28;20461;-68
2022/04/09 06:43:41;;;;;;;1.80;1.27;;;4.40;99.90;;;;;;5067432;28;20432;-69
2022/04/09 06:46:28;;;;;;;1.80;1.00;;;4.50;99.90;;;;;;5062377;28;20444;-68
2022/04/09 06:49:15;;;;;;;0.60;0.60;;;4.70;99.90;;;;;;5058119;28;20436;-68
2022/04/09 06:52:02;;;;;;;0.60;0.60;;;4.90;99.90;;;;;;5057322;28;20463;-67
2022/04/09 06:54:49;;;;;;;0.60;0.60;;;5.40;99.90;;;;;;5056732;28;20481;-68
2022/04/09 06:57:39;;;;;;;3.13;1.90;;;5.60;99.90;;;;;;5056109;28;20468;-68
2022/04/09 07:00:26;;;;;;;0.50;0.50;;;5.90;99.90;;;;;;5055979;28;20460;-68
2022/04/09 07:03:14;;;;;;;8.23;0.70;;;6.10;99.90;;;;;;5055882;28;20421;-68
2022/04/09 07:06:01;;;;;;;1.30;1.20;;;6.20;99.90;;;;;;5055734;28;21051;-67
2022/04/09 07:08:48;;;;;;;3.00;1.83;;;6.10;99.90;;;;;;5056574;28;20428;-67
2022/04/09 07:11:35;;;;;;;0.60;0.60;;;6.00;99.90;;;;;;5057966;28;20420;-68
2022/04/09 07:14:23;;;;;;;0.90;0.90;;;6.00;99.90;;;;;;5061722;28;20515;-68
2022/04/09 07:17:11;;;;;;;1.00;0.60;;;6.20;99.90;;;;;;5065567;28;20448;-69
2022/04/09 07:19:58;;;;;;;0.60;0.60;;;6.20;99.90;;;;;;5053680;28;20471;-69
2022/04/09 07:22:45;;;;;;;0.90;0.60;;;6.50;99.90;;;;;;5057616;28;20518;-69
2022/04/09 07:25:33;;;;;;;0.83;0.70;;;6.70;99.90;;;;;;5057822;28;20424;-68
2022/04/09 07:28:20;;;;;;;2.60;1.13;;;6.70;99.90;;;;;;5058493;28;20449;-69
2022/04/09 07:31:08;;;;;;;0.60;0.60;;;6.70;99.90;;;;;;5055400;28;20435;-69
2022/04/09 07:33:55;;;;;;;1.00;0.90;;;6.60;99.90;;;;;;5054761;28;20420;-71
2022/04/09 07:36:42;;;;;;;0.40;0.40;;;6.80;99.90;;;;;;5055635;28;20440;-69
2022/04/09 07:39:29;;;;;;;0.60;0.60;;;6.80;99.90;;;;;;5055044;28;20547;-68
2022/04/09 07:42:16;;;;;;;0.53;0.53;;;6.70;99.90;;;;;;5055429;28;20424;-69
2022/04/09 07:45:04;;;;;;;1.67;1.07;;;6.70;99.90;;;;;;5055389;28;20447;-68
2022/04/09 07:47:55;;;;;;;1.30;1.13;;;6.60;99.90;;;;;;5055277;28;20455;-68
2022/04/09 07:50:42;;;;;;;0.67;0.60;;;6.50;99.90;;;;;;5067596;28;20417;-68
2022/04/09 07:53:29;;;;;;;0.70;0.70;;;6.50;99.90;;;;;;5069213;28;20437;-69
2022/04/09 07:56:16;;;;;;;0.50;0.50;;;6.60;99.90;;;;;;5070774;28;20428;-70
2022/04/09 07:59:03;;;;;;;0.50;0.50;;;6.50;99.90;;;;;;5070042;28;20429;-68
2022/04/09 08:01:50;;;;;;;0.60;0.60;;;6.60;99.90;;;;;;5068976;28;20456;-68
2022/04/09 08:04:38;;;;;;;2.33;1.23;;;6.70;99.90;;;;;;5070800;28;20421;-68
2022/04/09 08:07:25;;;;;;;0.73;0.73;;;6.80;99.90;;;;;;5067581;28;20467;-68
2022/04/09 08:10:12;;;;;;;0.60;0.60;;;6.80;99.90;;;;;;5067786;28;20428;-69
2022/04/09 08:12:59;;;;;;;1.00;0.87;;;6.90;99.90;;;;;;5064808;28;20427;-68
2022/04/09 08:15:46;;;;;;;3.83;0.87;;;7.00;99.90;;;;;;5063175;28;20428;-69
2022/04/09 08:18:33;;;;;;;1.23;1.13;;;7.30;99.90;;;;;;5067177;28;20497;-70
2022/04/09 08:21:21;;;;;;;0.80;0.80;;;7.40;99.90;;;;;;5067134;28;20463;-69
2022/04/09 08:24:09;;;;;;;0.60;0.60;;;7.20;99.90;;;;;;5059438;28;20433;-69
2022/04/09 08:26:56;;;;;;;0.50;0.50;;;7.00;99.90;;;;;;5055332;28;20535;-69
2022/04/09 08:29:43;;;;;;;0.50;0.50;;;7.10;99.90;;;;;;5057237;28;20422;-68
2022/04/09 08:32:30;;;;;;;1.93;1.17;;;7.10;99.90;;;;;;5055774;28;20447;-70
2022/04/09 08:35:17;;;;;;;1.27;1.20;;;7.10;99.90;;;;;;5055040;28;20747;-71
2022/04/09 08:38:06;;;;;;;10.53;1.13;;;7.20;99.90;;;;;;5056505;28;20801;-70
2022/04/09 08:40:53;;;;;;;0.63;0.63;;;7.40;99.90;;;;;;5055692;28;20467;-70
2022/04/09 08:43:40;;;;;;;0.50;0.50;;;7.60;99.90;;;;;;5054199;28;20440;-70
2022/04/09 08:46:27;;;;;;;1.17;0.73;;;7.80;99.90;;;;;;5056262;28;20949;-69
2022/04/09 08:49:15;;;;;;;1.77;0.90;;;7.80;99.90;;;;;;5055765;28;20425;-68
2022/04/09 08:52:03;;;;;;;1.00;0.90;;;7.80;99.90;;;;;;5053900;28;20551;-68
2022/04/09 08:54:51;;;;;;;0.50;0.50;;;7.80;99.90;;;;;;5055218;28;20431;-69
2022/04/09 08:57:38;;;;;;;0.77;0.77;;;7.70;99.90;;;;;;5055518;28;20846;-69
2022/04/09 09:00:25;;;;;;;1.43;0.90;;;7.60;99.90;;;;;;5055649;28;21034;-68
2022/04/09 09:03:14;;;;;;;0.77;0.77;;;7.40;99.90;;;;;;5055458;28;20455;-69
2022/04/09 09:06:01;;;;;;;1.93;0.80;;;7.30;99.90;;;;;;5056878;28;20455;-67
2022/04/09 09:08:48;;;;;;;1.43;1.13;;;7.10;99.90;;;;;;5057071;28;20429;-69
2022/04/09 09:11:48;;;;;;;0.60;0.60;;;7.20;99.90;;;;;;5055888;28;20428;-68
2022/04/09 09:14:36;;;;;;;0.60;0.60;;;7.40;99.90;;;;;;5063280;28;20428;-68
2022/04/09 09:17:28;;;;;;;1.70;1.33;;;7.70;99.90;;;;;;5070734;28;20504;-68
2022/04/09 09:20:15;;;;;;;1.90;0.93;;;8.20;99.90;;;;;;5070449;28;20484;-69
2022/04/09 09:23:02;;;;;;;3.03;1.10;;;8.30;99.90;;;;;;5070356;28;20436;-69
2022/04/09 09:25:50;;;;;;;0.50;0.50;;;8.40;99.90;;;;;;5071862;28;20463;-68
2022/04/09 09:28:38;;;;;;;0.40;0.40;;;8.60;99.90;;;;;;5068703;28;20433;-68
2022/04/09 09:31:40;;;;;;;0.50;0.50;;;8.70;99.90;;;;;;5067173;28;20501;-70
2022/04/09 09:34:29;;;;;;;1.30;1.03;;;8.80;99.90;;;;;;5067781;28;20446;-71
2022/04/09 09:37:22;;;;;;;2.00;1.00;;;8.70;99.90;;;;;;5069883;28;20444;-71
2022/04/09 09:40:10;;;;;;;0.57;0.57;;;8.50;99.90;;;;;;5068471;28;20456;-70
2022/04/09 09:43:13;;;;;;;0.70;0.70;;;8.50;99.90;;;;;;5068035;28;20425;-68
2022/04/09 09:46:02;;;;;;;0.80;0.80;;;8.40;99.90;;;;;;5058132;28;20454;-69
2022/04/09 09:48:51;;;;;;;0.50;0.50;;;8.50;99.90;;;;;;5055829;28;20435;-70
2022/04/09 09:51:38;;;;;;;1.10;1.00;;;8.80;99.90;;;;;;5055979;28;21004;-68
2022/04/09 09:54:25;;;;;;;0.40;0.40;;;9.20;99.90;;;;;;5057448;28;20419;-70
2022/04/09 09:57:19;;;;;;;0.83;0.83;;;9.40;99.90;;;;;;5059672;28;20448;-69
2022/04/09 10:00:10;;;;;;;0.90;0.90;;;9.40;99.90;;;;;;5058850;28;20555;-68
2022/04/09 10:02:59;;;;;;;0.50;0.50;;;9.40;99.90;;;;;;5058959;28;20936;-69
2022/04/09 10:05:48;;;;;;;4.07;1.10;;;9.40;99.90;;;;;;5059402;28;20942;-69
2022/04/09 10:08:37;;;;;;;1.63;1.53;;;9.30;99.90;;;;;;5058758;28;20417;-69
2022/04/09 10:11:26;;;;;;;0.73;0.70;;;9.00;99.90;;;;;;5058917;28;20417;-69
2022/04/09 10:14:14;;;;;;;0.60;0.60;;;8.90;99.90;;;;;;5057403;28;20420;-68
2022/04/09 10:17:07;;;;;;;1.70;1.13;;;9.10;99.90;;;;;;5056677;28;20871;-69
2022/04/09 10:19:57;;;;;;;3.20;1.47;;;9.10;99.90;;;;;;5058565;28;20468;-68
2022/04/09 10:22:46;;;;;;;2.10;0.70;;;9.20;99.90;;;;;;5057750;28;20443;-68
2022/04/09 10:25:34;;;;;;;1.30;0.90;;;9.30;99.90;;;;;;5058123;28;20439;-68
2022/04/09 10:28:32;;;;;;;0.83;0.83;;;9.10;99.90;;;;;;5058091;28;20570;-68
2022/04/09 10:31:43;;;;;;;5.27;1.50;;;9.20;99.90;;;;;;5057360;28;20771;-69
2022/04/09 10:34:50;;;;;;;1.70;1.03;;;9.30;99.90;;;;;;5046909;28;20455;-69
2022/04/09 10:38:26;;;;;;;1.63;0.60;;;9.30;99.90;;;;;;5055899;28;20444;-70
2022/04/09 10:41:31;;;;;;;0.80;0.60;;;9.50;99.90;;;;;;5053538;28;20483;-69
2022/04/09 10:44:35;;;;;;;0.70;0.70;;;9.60;99.90;;;;;;5057379;28;20562;-69
2022/04/09 10:47:22;;;;;;;0.90;0.70;;;9.90;99.90;;;;;;5055833;28;20478;-69
2022/04/09 10:50:11;;;;;;;3.33;1.17;;;10.10;99.90;;;;;;5056649;28;20432;-70
2022/04/09 10:53:04;;;;;;;0.50;0.50;;;10.20;99.90;;;;;;5055919;28;20498;-69
2022/04/09 10:56:20;;;;;;;2.20;0.73;;;10.10;99.90;;;;;;5057920;28;20456;-69
2022/04/09 10:59:09;;;;;;;1.37;0.80;;;10.00;99.90;;;;;;5033654;28;20425;-68
2022/04/09 11:01:56;;;;;;;1.20;0.90;;;9.70;99.90;;;;;;5038270;28;20468;-70
2022/04/09 11:04:44;;;;;;;4.93;1.00;;;9.50;99.90;;;;;;5036581;28;20492;-69
2022/04/09 11:07:32;;;;;;;3.10;1.13;;;9.60;99.90;;;;;;5036878;28;21024;-71
2022/04/09 11:10:22;;;;;;;1.93;1.43;;;10.00;99.90;;;;;;5035950;28;20517;-69
2022/04/09 11:13:10;;;;;;;0.87;0.87;;;10.40;99.90;;;;;;5036651;28;20460;-70
2022/04/09 11:15:57;;;;;;;0.53;0.53;;;10.30;99.90;;;;;;5036051;28;21001;-70
2022/04/09 11:18:46;;;;;;;7.40;1.07;;;10.10;99.90;;;;;;5036748;28;20974;-68
2022/04/09 11:21:34;;;;;;;2.00;0.97;;;10.00;99.90;;;;;;5036310;28;20509;-69
2022/04/09 11:24:21;;;;;;;0.90;0.70;;;10.10;99.90;;;;;;5037319;28;20845;-70
2022/04/09 11:27:10;;;;;;;0.60;0.60;;;10.50;99.90;;;;;;5038171;28;20855;-71
2022/04/09 11:29:57;;;;;;;0.57;0.57;;;10.80;99.90;;;;;;5038632;28;20417;-68
2022/04/09 11:32:46;;;;;;;3.90;0.70;;;11.10;99.90;;;;;;5039861;28;20421;-71
2022/04/09 11:35:34;;;;;;;1.13;0.90;;;11.20;99.90;;;;;;5040475;28;20464;-69
2022/04/09 11:38:24;;;;;;;0.63;0.63;;;11.00;99.90;;;;;;5037193;28;20504;-69
2022/04/09 11:41:19;;;;;;;0.80;0.70;;;10.40;99.90;;;;;;5035366;28;20460;-69
2022/04/09 11:44:08;;;;;;;0.60;0.60;;;9.90;99.90;;;;;;5036146;28;20441;-69
2022/04/09 11:46:55;;;;;;;0.60;0.60;;;9.20;99.90;;;;;;5037015;28;20441;-68
2022/04/09 11:49:43;;;;;;;0.50;0.50;;;8.70;99.90;;;;;;5035517;28;20837;-69
2022/04/09 11:52:31;;;;;;;0.50;0.50;;;8.80;99.90;;;;;;5035167;28;20426;-70
2022/04/09 11:55:18;;;;;;;0.50;0.50;;;9.00;99.90;;;;;;5035233;28;20432;-69
2022/04/09 11:58:06;;;;;;;0.50;0.50;;;9.30;99.90;;;;;;5052728;28;20502;-69
2022/04/09 12:00:54;;;;;;;0.50;0.50;;;9.40;99.90;;;;;;5055225;28;20490;-69
2022/04/09 12:03:51;;;;;;;0.70;0.70;;;9.50;99.90;;;;;;5054479;28;20436;-69
2022/04/09 12:06:38;;;;;;;0.50;0.50;;;9.80;99.90;;;;;;5055004;28;20994;-70
2022/04/09 12:09:25;;;;;;;0.60;0.60;;;10.30;99.90;;;;;;5056499;28;20420;-70
2022/04/09 12:12:12;;;;;;;0.70;0.70;;;10.80;99.90;;;;;;5057068;28;20420;-71
2022/04/09 12:15:00;;;;;;;0.40;0.40;;;11.20;99.90;;;;;;5057997;28;20482;-70
2022/04/09 12:17:48;;;;;;;1.10;0.70;;;11.10;99.90;;;;;;5056979;28;20928;-70
2022/04/09 12:20:37;;;;;;;0.70;0.63;;;11.30;99.90;;;;;;5056655;28;20464;-71
2022/04/09 12:23:30;;;;;;;0.60;0.60;;;11.30;99.90;;;;;;5058161;28;20435;-69
2022/04/09 12:26:25;;;;;;;0.50;0.50;;;10.80;99.90;;;;;;5055926;28;20433;-69
2022/04/09 12:29:19;;;;;;;0.93;0.50;;;9.70;99.90;;;;;;5055657;28;20742;-70
2022/04/09 12:32:18;;;;;;;0.47;0.47;;;8.90;99.90;;;;;;5055548;28;21000;-69
2022/04/09 12:35:08;;;;;;;0.50;0.50;;;8.70;99.90;;;;;;5054284;28;20808;-69
2022/04/09 12:37:55;;;;;;;1.00;0.87;;;9.00;99.90;;;;;;5055987;28;20448;-69
2022/04/09 12:40:42;;;;;;;1.57;0.70;;;9.40;99.90;;;;;;5055416;28;20518;-69
2022/04/09 12:43:35;;;;;;;0.40;0.40;;;9.80;99.90;;;;;;5057004;28;20933;-71
2022/04/09 12:46:22;;;;;;;0.50;0.50;;;10.30;99.90;;;;;;5055789;28;20429;-70
2022/04/09 12:49:09;;;;;;;7.27;1.73;;;10.90;99.90;;;;;;5056749;28;20812;-70
2022/04/09 12:51:58;;;;;;;0.97;0.60;;;11.20;99.90;;;;;;5056201;28;20829;-73
2022/04/09 12:54:45;;;;;;;0.53;0.50;;;11.00;99.90;;;;;;5056652;28;20452;-71
2022/04/09 12:57:32;;;;;;;2.03;1.13;;;10.60;99.90;;;;;;5057938;28;20834;-71
2022/04/09 13:00:19;;;;;;;1.07;0.60;;;10.00;99.90;;;;;;5055701;28;20428;-69
2022/04/09 13:03:06;;;;;;;0.73;0.73;;;9.60;99.90;;;;;;5055410;28;20435;-69
2022/04/09 13:05:53;;;;;;;0.63;0.63;;;9.40;99.90;;;;;;5055682;28;20424;-72
2022/04/09 13:08:41;;;;;;;0.80;0.80;;;9.10;99.90;;;;;;5057468;28;20437;-70
2022/04/09 13:11:28;;;;;;;1.00;0.70;;;8.60;99.90;;;;;;5058830;28;20828;-68
2022/04/09 13:14:16;;;;;;;1.53;0.60;;;8.00;99.90;;;;;;5057237;28;20429;-70
2022/04/09 13:17:03;;;;;;;0.50;0.50;;;7.40;99.90;;;;;;5053210;28;20948;-71
2022/04/09 13:19:50;;;;;;;0.50;0.50;;;7.20;99.90;;;;;;5052745;28;20801;-68
2022/04/09 13:22:37;;;;;;;0.50;0.50;;;7.00;99.90;;;;;;5052485;28;20509;-69
2022/04/09 13:25:26;;;;;;;0.50;0.50;;;7.10;99.90;;;;;;5053098;28;20420;-69
2022/04/09 13:28:14;;;;;;;0.53;0.53;;;7.10;99.90;;;;;;5054246;28;20448;-69
2022/04/09 13:31:01;;;;;;;0.50;0.50;;;7.50;99.90;;;;;;5057246;28;20428;-69
2022/04/09 13:33:47;;;;;;;0.50;0.50;;;8.70;99.90;;;;;;5057794;28;20434;-69
2022/04/09 13:36:34;;;;;;;0.50;0.50;;;10.00;99.90;;;;;;5056479;28;20840;-69
2022/04/09 13:39:22;;;;;;;0.50;0.50;;;11.40;99.90;;;;;;5058875;28;20431;-71
2022/04/09 13:42:10;;;;;;;0.40;0.40;;;12.90;99.90;;;;;;5059803;28;20460;-68
2022/04/09 13:44:58;;;;;;;0.60;0.60;;;14.50;99.90;;;;;;5060636;28;20945;-70
2022/04/09 13:47:45;;;;;;;0.40;0.40;;;15.70;99.90;;;;;;5061003;28;20527;-70
2022/04/09 13:50:32;;;;;;;0.70;0.50;;;16.10;99.90;;;;;;5071677;22;20475;-66
2022/04/09 13:53:19;;;;;;;0.40;0.40;;;16.40;99.90;;;;;;5056844;28;20416;-66
2022/04/09 13:56:06;;;;;;;0.50;0.50;;;16.50;99.90;;;;;;5057044;28;20432;-66
2022/04/09 13:58:54;;;;;;;0.80;0.63;;;15.90;98.60;;;;;;5076736;28;20415;-65
2022/04/09 14:01:41;;;;;;;0.57;0.57;;;14.90;99.40;;;;;;5076691;28;20994;-65
2022/04/09 14:04:28;;;;;;;0.73;0.60;;;14.00;99.90;;;;;;5076504;28;20419;-66
2022/04/09 14:07:15;;;;;;;0.50;0.50;;;13.10;99.90;;;;;;5077033;28;20439;-64
2022/04/09 14:10:03;;;;;;;0.50;0.50;;;12.30;99.90;;;;;;5076090;28;20538;-66
2022/04/09 14:12:50;;;;;;;0.50;0.50;;;11.20;99.90;;;;;;5077396;28;20435;-66
2022/04/09 14:15:38;;;;;;;0.70;0.70;;;10.60;99.90;;;;;;5078184;28;20424;-66
2022/04/09 14:18:26;;;;;;;0.73;0.50;;;10.60;99.90;;;;;;5076382;28;20507;-68
2022/04/09 14:21:13;;;;;;;0.60;0.50;;;12.40;99.90;;;;;;5076287;28;20493;-66
2022/04/09 14:24:00;;;;;;;0.40;0.40;;;13.30;99.90;;;;;;5077201;28;20505;-66
2022/04/09 14:26:47;;;;;;;0.50;0.50;;;12.90;99.90;;;;;;5076559;28;20442;-66
2022/04/09 14:29:34;;;;;;;0.97;0.60;;;12.60;99.90;;;;;;5075720;28;20458;-65
2022/04/09 14:32:23;;;;;;;0.57;0.57;;;12.30;99.90;;;;;;5075621;28;20430;-65
2022/04/09 14:35:10;;;;;;;1.53;0.77;;;11.70;99.90;;;;;;5075676;28;20818;-66
2022/04/09 14:37:57;;;;;;;0.53;0.53;;;11.30;99.90;;;;;;5077744;28;20458;-66
2022/04/09 14:40:44;;;;;;;0.40;0.40;;;10.50;99.90;;;;;;5075628;28;20833;-65
2022/04/09 14:43:31;;;;;;;0.40;0.40;;;10.40;99.90;;;;;;5076588;28;20424;-66
2022/04/09 14:46:18;;;;;;;0.70;0.60;;;10.10;99.90;;;;;;5076011;28;20419;-65